sensor_id;sensor_type;location;lat;lon;timestamp;pressure;altitude;pressure_sealevel;temperature;humidity
76137;BME280;68622;53.128;17.966;2023-05-10T00:00:28;101653.24;;;10.45;42.65
76137;BME280;68622;53.128;17.966;2023-05-10T00:03:08;101650.05;;;10.46;42.37
76137;BME280;68622;53.128;17.966;2023-05-10T00:05:34;101651.92;;;10.44;41.90
76137;BME280;68622;53.128;17.966;2023-05-10T00:08:00;101650.14;;;10.40;42.67
76137;BME280;68622;53.128;17.966;2023-05-10T00:10:26;101650.21;;;10.39;42.57
76137;BME280;68622;53.128;17.966;2023-05-10T00:12:52;101654.82;;;10.38;42.86
76137;BME280;68622;53.128;17.966;2023-05-10T00:15:18;101653.75;;;10.36;42.80
76137;BME280;68622;53.128;17.966;2023-05-10T00:17:43;101655.19;;;10.35;42.40
76137;BME280;68622;53.128;17.966;2023-05-10T00:20:10;101651.27;;;10.34;42.49
76137;BME280;68622;53.128;17.966;2023-05-10T00:22:36;101649.17;;;10.32;42.22
76137;BME280;68622;53.128;17.966;2023-05-10T00:25:02;101645.96;;;10.29;42.47
76137;BME280;68622;53.128;17.966;2023-05-10T00:27:28;101639.85;;;10.24;42.72
76137;BME280;68622;53.128;17.966;2023-05-10T00:29:54;101639.26;;;10.25;42.60
76137;BME280;68622;53.128;17.966;2023-05-10T00:32:20;101639.70;;;10.21;42.92
76137;BME280;68622;53.128;17.966;2023-05-10T00:34:46;101635.43;;;10.20;42.77
76137;BME280;68622;53.128;17.966;2023-05-10T00:37:12;101634.67;;;10.19;42.35
76137;BME280;68622;53.128;17.966;2023-05-10T00:39:38;101630.48;;;10.17;43.25
76137;BME280;68622;53.128;17.966;2023-05-10T00:42:04;101629.76;;;10.14;43.15
76137;BME280;68622;53.128;17.966;2023-05-10T00:44:30;101634.21;;;10.10;42.93
76137;BME280;68622;53.128;17.966;2023-05-10T00:46:57;101628.93;;;10.07;42.86
76137;BME280;68622;53.128;17.966;2023-05-10T00:49:23;101628.05;;;10.02;43.11
76137;BME280;68622;53.128;17.966;2023-05-10T00:51:50;101626.21;;;9.96;43.44
76137;BME280;68622;53.128;17.966;2023-05-10T00:54:16;101628.61;;;9.92;43.65
76137;BME280;68622;53.128;17.966;2023-05-10T00:56:42;101624.63;;;9.86;43.46
76137;BME280;68622;53.128;17.966;2023-05-10T00:59:15;101618.67;;;9.83;43.29
76137;BME280;68622;53.128;17.966;2023-05-10T01:01:46;101621.48;;;9.80;43.71
76137;BME280;68622;53.128;17.966;2023-05-10T01:04:13;101621.64;;;9.75;44.08
76137;BME280;68622;53.128;17.966;2023-05-10T01:06:42;101623.08;;;9.70;44.03
76137;BME280;68622;53.128;17.966;2023-05-10T01:09:09;101626.39;;;9.64;44.00
76137;BME280;68622;53.128;17.966;2023-05-10T01:11:37;101626.31;;;9.58;44.45
76137;BME280;68622;53.128;17.966;2023-05-10T01:14:03;101624.91;;;9.51;44.51
76137;BME280;68622;53.128;17.966;2023-05-10T01:16:35;101622.86;;;9.43;44.76
76137;BME280;68622;53.128;17.966;2023-05-10T01:19:04;101619.77;;;9.35;44.85
76137;BME280;68622;53.128;17.966;2023-05-10T01:24:51;101619.46;;;9.20;45.51
76137;BME280;68622;53.128;17.966;2023-05-10T01:27:41;101617.73;;;9.12;45.32
76137;BME280;68622;53.128;17.966;2023-05-10T01:33:23;101608.08;;;8.98;45.34
76137;BME280;68622;53.128;17.966;2023-05-10T01:36:08;101607.33;;;8.92;45.80
76137;BME280;68622;53.128;17.966;2023-05-10T01:38:51;101604.50;;;8.85;45.75
76137;BME280;68622;53.128;17.966;2023-05-10T01:44:35;101607.05;;;8.75;45.84
76137;BME280;68622;53.128;17.966;2023-05-10T01:47:12;101604.14;;;8.69;46.22
76137;BME280;68622;53.128;17.966;2023-05-10T01:49:47;101603.58;;;8.65;46.27
76137;BME280;68622;53.128;17.966;2023-05-10T01:52:17;101600.48;;;8.59;46.51
76137;BME280;68622;53.128;17.966;2023-05-10T01:54:51;101598.70;;;8.55;46.24
76137;BME280;68622;53.128;17.966;2023-05-10T01:57:20;101602.44;;;8.51;46.97
76137;BME280;68622;53.128;17.966;2023-05-10T01:59:49;101598.73;;;8.47;47.09
76137;BME280;68622;53.128;17.966;2023-05-10T02:02:19;101596.48;;;8.41;48.29
76137;BME280;68622;53.128;17.966;2023-05-10T02:04:47;101593.39;;;8.38;47.05
76137;BME280;68622;53.128;17.966;2023-05-10T02:07:15;101596.73;;;8.35;47.32
76137;BME280;68622;53.128;17.966;2023-05-10T02:09:44;101592.77;;;8.32;47.19
76137;BME280;68622;53.128;17.966;2023-05-10T02:12:13;101584.87;;;8.28;47.40
76137;BME280;68622;53.128;17.966;2023-05-10T02:14:41;101586.68;;;8.24;47.45
76137;BME280;68622;53.128;17.966;2023-05-10T02:17:08;101583.30;;;8.20;47.34
76137;BME280;68622;53.128;17.966;2023-05-10T02:19:40;101583.29;;;8.18;47.40
76137;BME280;68622;53.128;17.966;2023-05-10T02:22:09;101579.16;;;8.15;47.50
76137;BME280;68622;53.128;17.966;2023-05-10T02:24:36;101576.73;;;8.12;47.31
76137;BME280;68622;53.128;17.966;2023-05-10T02:27:03;101574.98;;;8.10;47.93
76137;BME280;68622;53.128;17.966;2023-05-10T02:29:31;101575.64;;;8.08;47.95
76137;BME280;68622;53.128;17.966;2023-05-10T02:31:59;101573.58;;;8.05;47.95
76137;BME280;68622;53.128;17.966;2023-05-10T02:34:26;101575.95;;;8.00;48.07
76137;BME280;68622;53.128;17.966;2023-05-10T02:36:53;101579.52;;;7.98;47.91
76137;BME280;68622;53.128;17.966;2023-05-10T02:39:20;101579.20;;;7.95;47.96
76137;BME280;68622;53.128;17.966;2023-05-10T02:41:48;101578.55;;;7.92;48.03
76137;BME280;68622;53.128;17.966;2023-05-10T02:44:17;101578.50;;;7.90;48.26
76137;BME280;68622;53.128;17.966;2023-05-10T02:46:46;101577.94;;;7.88;48.45
76137;BME280;68622;53.128;17.966;2023-05-10T02:49:12;101578.05;;;7.86;48.25
76137;BME280;68622;53.128;17.966;2023-05-10T02:51:43;101577.88;;;7.83;48.29
76137;BME280;68622;53.128;17.966;2023-05-10T02:54:19;101578.35;;;7.81;49.03
76137;BME280;68622;53.128;17.966;2023-05-10T02:56:51;101573.01;;;7.79;48.82
76137;BME280;68622;53.128;17.966;2023-05-10T02:59:19;101575.66;;;7.78;48.44
76137;BME280;68622;53.128;17.966;2023-05-10T03:01:45;101575.77;;;7.78;48.65
76137;BME280;68622;53.128;17.966;2023-05-10T03:04:12;101575.80;;;7.78;49.12
76137;BME280;68622;53.128;17.966;2023-05-10T03:06:39;101583.00;;;7.79;48.58
76137;BME280;68622;53.128;17.966;2023-05-10T03:09:05;101581.21;;;7.80;48.55
76137;BME280;68622;53.128;17.966;2023-05-10T03:12:00;101583.02;;;7.81;48.52
76137;BME280;68622;53.128;17.966;2023-05-10T03:14:48;101580.89;;;7.82;48.69
76137;BME280;68622;53.128;17.966;2023-05-10T03:20:06;101577.14;;;7.85;48.94
76137;BME280;68622;53.128;17.966;2023-05-10T03:22:38;101577.09;;;7.85;48.92
76137;BME280;68622;53.128;17.966;2023-05-10T03:25:07;101576.57;;;7.87;48.29
76137;BME280;68622;53.128;17.966;2023-05-10T03:27:40;101572.79;;;7.90;49.25
76137;BME280;68622;53.128;17.966;2023-05-10T03:30:08;101575.69;;;7.94;49.02
76137;BME280;68622;53.128;17.966;2023-05-10T03:32:36;101573.31;;;7.95;49.64
76137;BME280;68622;53.128;17.966;2023-05-10T03:35:07;101572.25;;;7.98;49.28
76137;BME280;68622;53.128;17.966;2023-05-10T03:37:34;101569.66;;;8.01;48.90
76137;BME280;68622;53.128;17.966;2023-05-10T03:40:01;101568.06;;;8.05;49.01
76137;BME280;68622;53.128;17.966;2023-05-10T03:42:28;101569.04;;;8.08;49.20
76137;BME280;68622;53.128;17.966;2023-05-10T03:44:54;101570.17;;;8.12;48.74
76137;BME280;68622;53.128;17.966;2023-05-10T03:47:20;101571.67;;;8.15;48.83
76137;BME280;68622;53.128;17.966;2023-05-10T03:49:46;101570.41;;;8.19;48.67
76137;BME280;68622;53.128;17.966;2023-05-10T03:52:12;101569.20;;;8.24;48.67
76137;BME280;68622;53.128;17.966;2023-05-10T03:54:38;101570.69;;;8.28;48.52
76137;BME280;68622;53.128;17.966;2023-05-10T03:57:04;101572.30;;;8.33;48.39
76137;BME280;68622;53.128;17.966;2023-05-10T03:59:31;101569.06;;;8.37;48.39
76137;BME280;68622;53.128;17.966;2023-05-10T04:01:57;101567.51;;;8.43;48.66
76137;BME280;68622;53.128;17.966;2023-05-10T04:04:23;101565.45;;;8.48;48.39
76137;BME280;68622;53.128;17.966;2023-05-10T04:06:50;101563.89;;;8.53;47.99
76137;BME280;68622;53.128;17.966;2023-05-10T04:09:15;101564.04;;;8.58;48.40
76137;BME280;68622;53.128;17.966;2023-05-10T04:11:43;101568.07;;;8.63;47.92
76137;BME280;68622;53.128;17.966;2023-05-10T04:14:09;101567.92;;;8.68;47.68
76137;BME280;68622;53.128;17.966;2023-05-10T04:16:34;101567.77;;;8.72;48.00
76137;BME280;68622;53.128;17.966;2023-05-10T04:19:00;101563.11;;;8.78;47.84
76137;BME280;68622;53.128;17.966;2023-05-10T04:21:26;101565.59;;;8.85;48.14
76137;BME280;68622;53.128;17.966;2023-05-10T04:23:52;101561.66;;;8.89;47.96
76137;BME280;68622;53.128;17.966;2023-05-10T04:26:18;101559.52;;;8.95;47.81
76137;BME280;68622;53.128;17.966;2023-05-10T04:28:44;101560.48;;;9.01;47.57
76137;BME280;68622;53.128;17.966;2023-05-10T04:31:10;101561.06;;;9.07;47.41
76137;BME280;68622;53.128;17.966;2023-05-10T04:33:37;101561.47;;;9.14;47.33
76137;BME280;68622;53.128;17.966;2023-05-10T04:36:03;101560.95;;;9.22;47.53
76137;BME280;68622;53.128;17.966;2023-05-10T04:38:29;101558.64;;;9.28;47.21
76137;BME280;68622;53.128;17.966;2023-05-10T04:41:04;101552.57;;;9.38;47.45
76137;BME280;68622;53.128;17.966;2023-05-10T04:43:30;101547.45;;;9.56;47.39
76137;BME280;68622;53.128;17.966;2023-05-10T04:45:56;101548.16;;;9.78;46.81
76137;BME280;68622;53.128;17.966;2023-05-10T04:48:22;101540.72;;;10.02;46.20
76137;BME280;68622;53.128;17.966;2023-05-10T04:50:48;101544.29;;;10.29;45.72
76137;BME280;68622;53.128;17.966;2023-05-10T04:53:14;101542.90;;;10.59;45.58
76137;BME280;68622;53.128;17.966;2023-05-10T04:55:40;101543.97;;;10.88;45.11
76137;BME280;68622;53.128;17.966;2023-05-10T04:58:06;101545.38;;;11.17;44.69
76137;BME280;68622;53.128;17.966;2023-05-10T05:00:33;101543.60;;;11.46;44.29
76137;BME280;68622;53.128;17.966;2023-05-10T05:02:59;101539.02;;;11.76;43.85
76137;BME280;68622;53.128;17.966;2023-05-10T05:05:25;101536.34;;;12.05;43.57
76137;BME280;68622;53.128;17.966;2023-05-10T05:07:51;101531.11;;;12.32;43.33
76137;BME280;68622;53.128;17.966;2023-05-10T05:10:17;101531.09;;;12.58;42.70
76137;BME280;68622;53.128;17.966;2023-05-10T05:12:43;101527.36;;;12.81;42.14
76137;BME280;68622;53.128;17.966;2023-05-10T05:15:09;101523.17;;;13.04;41.78
76137;BME280;68622;53.128;17.966;2023-05-10T05:17:35;101524.80;;;13.27;41.43
76137;BME280;68622;53.128;17.966;2023-05-10T05:20:01;101524.08;;;13.49;40.95
76137;BME280;68622;53.128;17.966;2023-05-10T05:22:27;101523.23;;;13.71;40.08
76137;BME280;68622;53.128;17.966;2023-05-10T05:24:54;101525.20;;;13.90;40.10
76137;BME280;68622;53.128;17.966;2023-05-10T05:27:20;101521.56;;;14.09;40.81
76137;BME280;68622;53.128;17.966;2023-05-10T05:29:53;101518.64;;;14.26;40.03
76137;BME280;68622;53.128;17.966;2023-05-10T05:32:20;101521.94;;;14.47;39.40
76137;BME280;68622;53.128;17.966;2023-05-10T05:34:46;101521.62;;;14.69;39.09
76137;BME280;68622;53.128;17.966;2023-05-10T05:37:13;101523.02;;;14.90;38.83
76137;BME280;68622;53.128;17.966;2023-05-10T05:39:40;101519.81;;;15.09;38.00
76137;BME280;68622;53.128;17.966;2023-05-10T05:42:06;101516.35;;;15.16;36.95
76137;BME280;68622;53.128;17.966;2023-05-10T05:44:31;101515.11;;;15.27;36.71
76137;BME280;68622;53.128;17.966;2023-05-10T05:46:57;101515.48;;;15.34;36.67
76137;BME280;68622;53.128;17.966;2023-05-10T05:49:23;101513.37;;;15.38;36.57
76137;BME280;68622;53.128;17.966;2023-05-10T05:51:49;101518.00;;;15.59;36.49
76137;BME280;68622;53.128;17.966;2023-05-10T05:54:16;101516.73;;;15.69;36.25
76137;BME280;68622;53.128;17.966;2023-05-10T05:56:42;101513.59;;;15.68;35.01
76137;BME280;68622;53.128;17.966;2023-05-10T05:59:08;101514.48;;;15.70;34.86
76137;BME280;68622;53.128;17.966;2023-05-10T06:01:33;101508.67;;;15.90;35.59
76137;BME280;68622;53.128;17.966;2023-05-10T06:03:59;101503.83;;;16.00;34.79
76137;BME280;68622;53.128;17.966;2023-05-10T06:06:25;101503.91;;;16.03;34.44
76137;BME280;68622;53.128;17.966;2023-05-10T06:08:51;101504.06;;;16.17;34.91
76137;BME280;68622;53.128;17.966;2023-05-10T06:11:17;101503.17;;;16.24;34.15
76137;BME280;68622;53.128;17.966;2023-05-10T06:13:43;101507.59;;;16.36;34.41
76137;BME280;68622;53.128;17.966;2023-05-10T06:16:09;101510.48;;;16.51;34.24
76137;BME280;68622;53.128;17.966;2023-05-10T06:18:35;101512.74;;;16.54;33.55
76137;BME280;68622;53.128;17.966;2023-05-10T06:21:01;101511.57;;;16.55;33.68
76137;BME280;68622;53.128;17.966;2023-05-10T06:23:26;101513.77;;;16.76;34.28
76137;BME280;68622;53.128;17.966;2023-05-10T06:25:52;101513.67;;;16.73;32.95
76137;BME280;68622;53.128;17.966;2023-05-10T06:28:18;101511.42;;;16.81;33.48
76137;BME280;68622;53.128;17.966;2023-05-10T06:30:44;101508.01;;;16.87;33.11
76137;BME280;68622;53.128;17.966;2023-05-10T06:33:10;101509.83;;;16.95;33.04
76137;BME280;68622;53.128;17.966;2023-05-10T06:35:36;101510.98;;;17.13;33.20
76137;BME280;68622;53.128;17.966;2023-05-10T06:38:02;101510.20;;;17.20;32.99
76137;BME280;68622;53.128;17.966;2023-05-10T06:40:28;101507.75;;;17.23;32.38
76137;BME280;68622;53.128;17.966;2023-05-10T06:42:54;101503.15;;;17.26;32.46
76137;BME280;68622;53.128;17.966;2023-05-10T06:45:20;101507.62;;;17.19;31.87
76137;BME280;68622;53.128;17.966;2023-05-10T06:47:46;101502.90;;;17.23;32.49
76137;BME280;68622;53.128;17.966;2023-05-10T06:50:12;101501.96;;;17.34;32.11
76137;BME280;68622;53.128;17.966;2023-05-10T06:52:38;101499.48;;;17.35;32.06
76137;BME280;68622;53.128;17.966;2023-05-10T06:55:04;101499.02;;;17.31;32.06
76137;BME280;68622;53.128;17.966;2023-05-10T06:57:31;101505.30;;;17.52;32.33
76137;BME280;68622;53.128;17.966;2023-05-10T06:59:58;101505.64;;;17.55;31.77
76137;BME280;68622;53.128;17.966;2023-05-10T07:02:24;101502.23;;;17.58;31.55
76137;BME280;68622;53.128;17.966;2023-05-10T07:04:50;101503.77;;;17.75;32.16
76137;BME280;68622;53.128;17.966;2023-05-10T07:07:17;101504.05;;;17.77;31.68
76137;BME280;68622;53.128;17.966;2023-05-10T07:09:43;101501.63;;;17.78;30.92
76137;BME280;68622;53.128;17.966;2023-05-10T07:12:10;101499.84;;;17.89;31.13
76137;BME280;68622;53.128;17.966;2023-05-10T07:14:36;101497.89;;;17.97;31.15
76137;BME280;68622;53.128;17.966;2023-05-10T07:17:02;101498.05;;;18.03;31.10
76137;BME280;68622;53.128;17.966;2023-05-10T07:19:28;101493.23;;;18.01;30.55
76137;BME280;68622;53.128;17.966;2023-05-10T07:21:55;101494.56;;;17.82;30.41
76137;BME280;68622;53.128;17.966;2023-05-10T07:24:21;101498.23;;;18.02;30.52
76137;BME280;68622;53.128;17.966;2023-05-10T07:26:47;101492.20;;;18.10;30.45
76137;BME280;68622;53.128;17.966;2023-05-10T07:29:13;101490.98;;;18.25;30.65
76137;BME280;68622;53.128;17.966;2023-05-10T07:31:38;101492.03;;;18.19;29.97
76137;BME280;68622;53.128;17.966;2023-05-10T07:34:07;101491.83;;;18.04;30.06
76137;BME280;68622;53.128;17.966;2023-05-10T07:36:33;101489.59;;;17.97;30.31
76137;BME280;68622;53.128;17.966;2023-05-10T07:38:59;101496.80;;;18.20;30.49
76137;BME280;68622;53.128;17.966;2023-05-10T07:41:25;101495.69;;;18.20;30.25
76137;BME280;68622;53.128;17.966;2023-05-10T07:43:51;101493.92;;;18.11;30.18
76137;BME280;68622;53.128;17.966;2023-05-10T07:46:17;101492.09;;;18.25;30.58
76137;BME280;68622;53.128;17.966;2023-05-10T07:48:45;101486.64;;;18.13;30.36
76137;BME280;68622;53.128;17.966;2023-05-10T07:51:11;101489.48;;;18.37;30.42
76137;BME280;68622;53.128;17.966;2023-05-10T07:53:38;101493.02;;;18.45;30.16
76137;BME280;68622;53.128;17.966;2023-05-10T07:58:47;101493.45;;;18.57;30.08
76137;BME280;68622;53.128;17.966;2023-05-10T08:01:13;101492.49;;;18.55;30.03
76137;BME280;68622;53.128;17.966;2023-05-10T08:03:39;101495.98;;;18.60;30.13
76137;BME280;68622;53.128;17.966;2023-05-10T08:06:05;101493.00;;;18.45;29.36
76137;BME280;68622;53.128;17.966;2023-05-10T08:08:31;101489.66;;;18.50;29.81
76137;BME280;68622;53.128;17.966;2023-05-10T08:10:57;101485.24;;;18.55;29.99
76137;BME280;68622;53.128;17.966;2023-05-10T08:13:23;101481.19;;;18.65;29.60
76137;BME280;68622;53.128;17.966;2023-05-10T08:15:49;101483.20;;;18.66;29.79
76137;BME280;68622;53.128;17.966;2023-05-10T08:18:17;101489.12;;;18.71;29.52
76137;BME280;68622;53.128;17.966;2023-05-10T08:20:43;101482.77;;;18.74;29.75
76137;BME280;68622;53.128;17.966;2023-05-10T08:23:09;101481.63;;;18.83;29.68
76137;BME280;68622;53.128;17.966;2023-05-10T08:25:35;101482.63;;;18.89;29.48
76137;BME280;68622;53.128;17.966;2023-05-10T08:28:01;101483.11;;;18.84;29.48
76137;BME280;68622;53.128;17.966;2023-05-10T08:30:27;101477.98;;;18.97;29.49
76137;BME280;68622;53.128;17.966;2023-05-10T08:32:53;101484.27;;;19.02;29.49
76137;BME280;68622;53.128;17.966;2023-05-10T08:35:19;101481.51;;;18.98;29.13
76137;BME280;68622;53.128;17.966;2023-05-10T08:37:45;101480.54;;;18.83;28.77
76137;BME280;68622;53.128;17.966;2023-05-10T08:40:11;101484.31;;;18.89;29.21
76137;BME280;68622;53.128;17.966;2023-05-10T08:42:40;101482.94;;;18.95;29.11
76137;BME280;68622;53.128;17.966;2023-05-10T08:45:10;101484.24;;;19.07;29.14
76137;BME280;68622;53.128;17.966;2023-05-10T08:47:37;101489.27;;;19.09;28.89
76137;BME280;68622;53.128;17.966;2023-05-10T08:50:05;101479.05;;;19.17;28.89
76137;BME280;68622;53.128;17.966;2023-05-10T08:52:32;101485.46;;;19.13;29.02
76137;BME280;68622;53.128;17.966;2023-05-10T08:54:59;101481.60;;;19.21;28.90
76137;BME280;68622;53.128;17.966;2023-05-10T08:57:25;101476.82;;;19.21;28.82
76137;BME280;68622;53.128;17.966;2023-05-10T08:59:51;101476.46;;;19.32;28.86
76137;BME280;68622;53.128;17.966;2023-05-10T09:02:19;101476.46;;;19.40;28.43
76137;BME280;68622;53.128;17.966;2023-05-10T09:04:46;101480.14;;;19.41;28.53
76137;BME280;68622;53.128;17.966;2023-05-10T09:07:12;101481.27;;;19.16;28.57
76137;BME280;68622;53.128;17.966;2023-05-10T09:09:38;101481.80;;;19.14;28.44
76137;BME280;68622;53.128;17.966;2023-05-10T09:12:04;101480.48;;;18.98;28.49
76137;BME280;68622;53.128;17.966;2023-05-10T09:14:34;101473.05;;;19.15;28.78
76137;BME280;68622;53.128;17.966;2023-05-10T09:17:01;101470.09;;;19.20;28.51
76137;BME280;68622;53.128;17.966;2023-05-10T09:19:27;101472.59;;;19.35;28.44
76137;BME280;68622;53.128;17.966;2023-05-10T09:21:53;101472.21;;;19.43;28.34
76137;BME280;68622;53.128;17.966;2023-05-10T09:24:25;101466.52;;;19.40;28.19
76137;BME280;68622;53.128;17.966;2023-05-10T09:26:51;101466.06;;;19.40;28.34
76137;BME280;68622;53.128;17.966;2023-05-10T09:29:17;101466.30;;;19.47;28.22
76137;BME280;68622;53.128;17.966;2023-05-10T09:31:45;101471.84;;;19.45;28.18
76137;BME280;68622;53.128;17.966;2023-05-10T09:34:29;101473.33;;;19.46;27.86
76137;BME280;68622;53.128;17.966;2023-05-10T09:37:00;101473.82;;;19.46;27.96
76137;BME280;68622;53.128;17.966;2023-05-10T09:39:34;101474.63;;;19.56;28.03
76137;BME280;68622;53.128;17.966;2023-05-10T09:42:07;101470.33;;;19.53;27.94
76137;BME280;68622;53.128;17.966;2023-05-10T09:44:34;101466.15;;;19.58;28.27
76137;BME280;68622;53.128;17.966;2023-05-10T09:47:01;101468.02;;;19.72;28.14
76137;BME280;68622;53.128;17.966;2023-05-10T09:49:28;101470.33;;;19.64;27.73
76137;BME280;68622;53.128;17.966;2023-05-10T09:54:28;101466.02;;;19.60;27.95
76137;BME280;68622;53.128;17.966;2023-05-10T09:56:54;101462.73;;;19.60;28.11
76137;BME280;68622;53.128;17.966;2023-05-10T09:59:20;101462.61;;;19.67;28.16
76137;BME280;68622;53.128;17.966;2023-05-10T10:01:50;101453.67;;;19.57;28.00
76137;BME280;68622;53.128;17.966;2023-05-10T10:04:20;101457.60;;;19.61;28.17
76137;BME280;68622;53.128;17.966;2023-05-10T10:06:58;101457.61;;;19.78;28.07
76137;BME280;68622;53.128;17.966;2023-05-10T10:09:25;101451.85;;;19.84;28.05
76137;BME280;68622;53.128;17.966;2023-05-10T10:11:53;101452.96;;;19.73;28.07
76137;BME280;68622;53.128;17.966;2023-05-10T10:14:21;101451.25;;;19.72;28.03
76137;BME280;68622;53.128;17.966;2023-05-10T10:16:49;101448.74;;;19.73;28.24
76137;BME280;68622;53.128;17.966;2023-05-10T10:19:20;101445.40;;;19.60;28.04
76137;BME280;68622;53.128;17.966;2023-05-10T10:21:51;101437.84;;;19.69;28.17
76137;BME280;68622;53.128;17.966;2023-05-10T10:24:17;101433.92;;;19.68;28.19
76137;BME280;68622;53.128;17.966;2023-05-10T10:26:43;101435.88;;;19.76;27.97
76137;BME280;68622;53.128;17.966;2023-05-10T10:29:36;101443.15;;;19.74;27.54
76137;BME280;68622;53.128;17.966;2023-05-10T10:32:43;101437.83;;;19.53;27.23
76137;BME280;68622;53.128;17.966;2023-05-10T10:35:12;101438.21;;;19.50;27.73
76137;BME280;68622;53.128;17.966;2023-05-10T10:37:46;101433.70;;;19.66;27.82
76137;BME280;68622;53.128;17.966;2023-05-10T10:40:29;101429.72;;;19.61;27.73
76137;BME280;68622;53.128;17.966;2023-05-10T10:43:20;101424.71;;;19.74;28.01
76137;BME280;68622;53.128;17.966;2023-05-10T10:45:41;101427.28;;;19.89;28.00
76137;BME280;68622;53.128;17.966;2023-05-10T10:48:21;101426.44;;;19.99;28.02
76137;BME280;68622;53.128;17.966;2023-05-10T10:50:56;101421.67;;;19.99;27.51
76137;BME280;68622;53.128;17.966;2023-05-10T10:53:22;101425.84;;;20.01;27.86
76137;BME280;68622;53.128;17.966;2023-05-10T10:55:48;101418.34;;;19.98;27.70
76137;BME280;68622;53.128;17.966;2023-05-10T10:58:30;101412.95;;;20.06;27.43
76137;BME280;68622;53.128;17.966;2023-05-10T11:01:12;101421.63;;;20.00;27.55
76137;BME280;68622;53.128;17.966;2023-05-10T11:03:39;101416.13;;;20.06;27.97
76137;BME280;68622;53.128;17.966;2023-05-10T11:06:05;101413.41;;;20.07;28.11
76137;BME280;68622;53.128;17.966;2023-05-10T11:08:33;101418.66;;;20.14;27.46
76137;BME280;68622;53.128;17.966;2023-05-10T11:13:45;101418.52;;;20.16;27.60
76137;BME280;68622;53.128;17.966;2023-05-10T11:16:18;101413.63;;;19.94;28.12
76137;BME280;68622;53.128;17.966;2023-05-10T11:21:28;101417.59;;;20.16;27.57
76137;BME280;68622;53.128;17.966;2023-05-10T11:23:56;101415.33;;;20.10;27.32
76137;BME280;68622;53.128;17.966;2023-05-10T11:26:30;101424.77;;;20.07;27.60
76137;BME280;68622;53.128;17.966;2023-05-10T11:28:57;101413.11;;;19.90;27.88
76137;BME280;68622;53.128;17.966;2023-05-10T11:31:28;101400.55;;;19.92;28.13
76137;BME280;68622;53.128;17.966;2023-05-10T11:33:56;101400.89;;;20.01;28.06
76137;BME280;68622;53.128;17.966;2023-05-10T11:36:35;101412.58;;;20.11;28.00
76137;BME280;68622;53.128;17.966;2023-05-10T11:39:02;101405.98;;;20.17;27.91
76137;BME280;68622;53.128;17.966;2023-05-10T11:41:30;101402.96;;;20.16;28.07
76137;BME280;68622;53.128;17.966;2023-05-10T11:43:57;101403.14;;;20.26;28.10
76137;BME280;68622;53.128;17.966;2023-05-10T11:46:27;101401.59;;;20.23;27.50
76137;BME280;68622;53.128;17.966;2023-05-10T11:48:58;101408.28;;;20.17;27.53
76137;BME280;68622;53.128;17.966;2023-05-10T11:51:27;101405.20;;;20.09;27.74
76137;BME280;68622;53.128;17.966;2023-05-10T11:53:54;101411.65;;;20.08;27.02
76137;BME280;68622;53.128;17.966;2023-05-10T11:56:20;101406.77;;;19.84;27.45
76137;BME280;68622;53.128;17.966;2023-05-10T11:58:56;101405.33;;;20.02;27.50
76137;BME280;68622;53.128;17.966;2023-05-10T12:01:26;101397.88;;;20.08;27.34
76137;BME280;68622;53.128;17.966;2023-05-10T12:03:55;101388.41;;;20.14;27.56
76137;BME280;68622;53.128;17.966;2023-05-10T12:06:26;101385.48;;;20.12;27.28
76137;BME280;68622;53.128;17.966;2023-05-10T12:08:52;101387.62;;;20.29;27.71
76137;BME280;68622;53.128;17.966;2023-05-10T12:11:19;101391.95;;;20.37;27.31
76137;BME280;68622;53.128;17.966;2023-05-10T12:13:47;101386.55;;;20.48;27.59
76137;BME280;68622;53.128;17.966;2023-05-10T12:16:18;101388.92;;;20.35;27.13
76137;BME280;68622;53.128;17.966;2023-05-10T12:18:45;101391.33;;;20.38;27.20
76137;BME280;68622;53.128;17.966;2023-05-10T12:21:14;101389.26;;;20.27;26.92
76137;BME280;68622;53.128;17.966;2023-05-10T12:23:41;101390.13;;;20.36;26.98
76137;BME280;68622;53.128;17.966;2023-05-10T12:26:10;101396.42;;;20.47;27.17
76137;BME280;68622;53.128;17.966;2023-05-10T12:28:37;101391.89;;;20.46;26.77
76137;BME280;68622;53.128;17.966;2023-05-10T12:31:03;101387.56;;;20.48;27.00
76137;BME280;68622;53.128;17.966;2023-05-10T12:33:40;101384.41;;;20.46;26.85
76137;BME280;68622;53.128;17.966;2023-05-10T12:36:11;101387.52;;;20.23;26.50
76137;BME280;68622;53.128;17.966;2023-05-10T12:38:40;101389.19;;;20.31;26.85
76137;BME280;68622;53.128;17.966;2023-05-10T12:41:10;101392.15;;;20.46;27.22
76137;BME280;68622;53.128;17.966;2023-05-10T12:43:37;101390.13;;;20.50;26.80
76137;BME280;68622;53.128;17.966;2023-05-10T12:46:10;101381.05;;;20.59;26.82
76137;BME280;68622;53.128;17.966;2023-05-10T12:48:37;101385.39;;;20.56;26.70
76137;BME280;68622;53.128;17.966;2023-05-10T12:51:04;101382.98;;;20.65;26.88
76137;BME280;68622;53.128;17.966;2023-05-10T12:53:31;101388.29;;;20.62;26.68
76137;BME280;68622;53.128;17.966;2023-05-10T12:55:57;101382.12;;;20.72;26.86
76137;BME280;68622;53.128;17.966;2023-05-10T12:58:23;101381.04;;;20.75;26.73
76137;BME280;68622;53.128;17.966;2023-05-10T13:00:49;101373.17;;;20.71;26.29
76137;BME280;68622;53.128;17.966;2023-05-10T13:03:17;101369.52;;;20.64;26.42
76137;BME280;68622;53.128;17.966;2023-05-10T13:05:43;101376.59;;;20.70;26.59
76137;BME280;68622;53.128;17.966;2023-05-10T13:08:09;101376.95;;;20.67;26.14
76137;BME280;68622;53.128;17.966;2023-05-10T13:10:35;101371.42;;;20.54;26.25